Private Wetterstation Wechselburg
Wetterdaten: Woche 31.07.23 - 06.08.23 (KW31)
Datum Zeit Temp. +2m Bodentemp. Temp.+5cm Temp. Wind Windchill X Diff Temp. Feuchte +2m Feuchte +5cm Luftdruck Regen Wind Richtung Sonnenschein Taupunkt Windchill Windben
31.07.2023 00:00 14,0 C 18,5 C 13,0 C 13,9 C 13,7 C 0,0 C 84 % 90 % 1013,5 hPa 0,0 l/m 0,0 km/h (0 Bft) N 0,00 h 11,4 C 13,7 C 0,0 km/h (0 Bft)
31.07.2023 01:00 14,3 C 18,3 C 13,1 C 14,2 C 13,9 C 0,0 C 82 % 90 % 1013,3 hPa 0,0 l/m 0,0 km/h (0 Bft) N 0,00 h 11,2 C 13,9 C 0,0 km/h (0 Bft)
31.07.2023 02:00 14,5 C 18,1 C 13,7 C 14,6 C 14,4 C 0,1 C 80 % 85 % 1013,0 hPa 0,0 l/m 0,1 km/h (0 Bft) N 0,00 h 11,2 C 14,4 C 0,9 km/h (0 Bft)
31.07.2023 03:00 15,2 C 17,9 C 14,7 C 15,4 C 15,4 C 0,2 C 78 % 79 % 1012,6 hPa 0,0 l/m 0,1 km/h (0 Bft) N 0,00 h 11,4 C 15,4 C 0,7 km/h (0 Bft)
31.07.2023 04:00 15,6 C 17,9 C 14,5 C 15,1 C 14,2 C 0,0 C 78 % 80 % 1012,7 hPa 0,7 l/m 0,4 km/h (0 Bft) N 0,00 h 11,7 C 14,2 C 3,1 km/h (1 Bft)
31.07.2023 05:00 14,7 C 18,0 C 13,8 C 14,3 C 13,4 C 0,0 C 83 % 90 % 1012,4 hPa 0,0 l/m 0,4 km/h (0 Bft) S 0,00 h 11,8 C 13,4 C 1,8 km/h (1 Bft)
31.07.2023 06:00 14,4 C 18,0 C 13,8 C 14,1 C 13,6 C 0,0 C 86 % 90 % 1012,2 hPa 0,7 l/m 2,2 km/h (1 Bft) S 0,00 h 12,0 C 13,6 C 2,6 km/h (1 Bft)
31.07.2023 07:00 14,6 C 18,0 C 14,2 C 14,5 C 14,1 C 0,0 C 87 % 90 % 1012,0 hPa 0,7 l/m 3,0 km/h (1 Bft) S 0,00 h 12,5 C 14,1 C 6,7 km/h (2 Bft)
31.07.2023 08:00 15,6 C 17,8 C 15,0 C 16,5 C 16,4 C 1,0 C 87 % 90 % 1011,6 hPa 0,0 l/m 2,6 km/h (1 Bft) SW 0,00 h 13,4 C 16,4 C 6,8 km/h (2 Bft)
31.07.2023 09:00 16,9 C 17,6 C 16,0 C 18,8 C 18,8 C 1,9 C 83 % 87 % 1011,6 hPa 0,0 l/m 1,2 km/h (1 Bft) O-SO 0,00 h 13,9 C 18,8 C 2,4 km/h (1 Bft)
31.07.2023 10:00 17,6 C 17,6 C 16,7 C 19,0 C 19,0 C 1,4 C 78 % 79 % 1011,6 hPa 0,0 l/m 0,1 km/h (0 Bft) N 0,00 h 13,8 C 19,0 C 0,2 km/h (0 Bft)
31.07.2023 11:00 18,3 C 17,5 C 17,4 C 19,7 C 19,7 C 1,4 C 76 % 75 % 1011,3 hPa 0,0 l/m 0,5 km/h (0 Bft) S-SW 0,00 h 14,0 C 19,7 C 1,7 km/h (1 Bft)
31.07.2023 12:00 18,7 C 17,5 C 18,2 C 19,7 C 19,6 C 1,0 C 76 % 75 % 1011,0 hPa 0,0 l/m 0,7 km/h (0 Bft) S 0,00 h 14,3 C 19,6 C 2,5 km/h (1 Bft)
31.07.2023 13:00 20,2 C 17,6 C 20,2 C 23,8 C 23,8 C 3,6 C 74 % 71 % 1010,5 hPa 0,0 l/m 0,9 km/h (0 Bft) S 0,92 h 15,4 C 23,8 C 3,0 km/h (1 Bft)
31.07.2023 14:00 21,3 C 17,6 C 20,8 C 23,8 C 23,8 C 2,4 C 67 % 64 % 1009,9 hPa 0,0 l/m 0,9 km/h (0 Bft) O-SO 0,17 h 14,8 C 23,8 C 2,0 km/h (1 Bft)
31.07.2023 15:00 22,0 C 17,7 C 21,9 C 25,5 C 25,5 C 3,5 C 64 % 60 % 1009,6 hPa 0,0 l/m 1,1 km/h (1 Bft) S-SO 0,50 h 14,8 C 25,5 C 4,4 km/h (1 Bft)
31.07.2023 16:00 22,1 C 17,8 C 21,8 C 24,7 C 24,7 C 2,6 C 61 % 57 % 1009,1 hPa 0,0 l/m 2,2 km/h (1 Bft) NW 0,27 h 14,3 C 24,7 C 6,3 km/h (2 Bft)
31.07.2023 17:00 21,2 C 17,9 C 20,6 C 21,7 C 21,7 C 0,4 C 64 % 60 % 1009,4 hPa 0,0 l/m 0,4 km/h (0 Bft) N 0,00 h 14,0 C 21,7 C 1,0 km/h (0 Bft)
31.07.2023 18:00 20,8 C 18,0 C 20,2 C 21,2 C 21,2 C 0,4 C 65 % 61 % 1008,9 hPa 0,0 l/m 0,4 km/h (0 Bft) N 0,00 h 14,1 C 21,2 C 1,1 km/h (1 Bft)
31.07.2023 19:00 20,7 C 18,0 C 19,9 C 20,9 C 20,9 C 0,2 C 66 % 64 % 1008,4 hPa 0,0 l/m 0,3 km/h (0 Bft) N 0,00 h 14,1 C 20,9 C 1,6 km/h (1 Bft)
31.07.2023 20:00 20,8 C 18,1 C 20,1 C 20,8 C 20,7 C 0,0 C 65 % 61 % 1008,0 hPa 0,0 l/m 0,5 km/h (0 Bft) SO 0,00 h 14,0 C 20,7 C 2,9 km/h (1 Bft)
31.07.2023 21:00 20,5 C 18,1 C 19,7 C 20,4 C 20,2 C 0,0 C 65 % 61 % 1007,7 hPa 0,0 l/m 0,7 km/h (0 Bft) S-SW 0,00 h 13,7 C 20,2 C 0,8 km/h (0 Bft)
31.07.2023 22:00 20,3 C 18,2 C 19,8 C 20,2 C 20,1 C 0,0 C 65 % 60 % 1006,9 hPa 0,0 l/m 0,8 km/h (0 Bft) O 0,00 h 13,6 C 20,1 C 3,3 km/h (1 Bft)
31.07.2023 23:00 20,1 C 18,2 C 19,5 C 20,0 C 19,7 C 0,0 C 67 % 62 % 1006,3 hPa 0,0 l/m 1,1 km/h (1 Bft) S 0,00 h 13,8 C 19,7 C 2,5 km/h (1 Bft)
01.08.2023 00:00 18,8 C 18,5 C 17,6 C 18,3 C 17,1 C 0,0 C 74 % 76 % 1005,7 hPa 0,0 l/m 0,3 km/h (0 Bft) S-SO 0,00 h 14,1 C 17,1 C 0,6 km/h (0 Bft)
01.08.2023 01:00 17,1 C 18,8 C 16,1 C 16,6 C 15,7 C 0,0 C 82 % 90 % 1004,8 hPa 0,7 l/m 0,2 km/h (0 Bft) N 0,00 h 14,0 C 15,7 C 0,8 km/h (0 Bft)
01.08.2023 02:00 16,7 C 18,7 C 16,0 C 16,4 C 15,8 C 0,0 C 86 % 90 % 1003,4 hPa 0,0 l/m 1,3 km/h (1 Bft) S 0,00 h 14,3 C 15,8 C 3,8 km/h (1 Bft)
01.08.2023 03:00 16,7 C 18,7 C 15,9 C 16,4 C 15,8 C 0,0 C 86 % 90 % 1002,7 hPa 0,0 l/m 2,8 km/h (1 Bft) S 0,00 h 14,4 C 15,8 C 4,1 km/h (1 Bft)
01.08.2023 04:00 16,5 C 18,6 C 15,9 C 16,3 C 15,8 C 0,0 C 87 % 90 % 1001,4 hPa 0,0 l/m 2,3 km/h (1 Bft) S-SO 0,00 h 14,3 C 15,8 C 4,4 km/h (1 Bft)
01.08.2023 05:00 16,5 C 18,6 C 15,9 C 16,2 C 15,7 C 0,0 C 87 % 90 % 1000,6 hPa 0,7 l/m 2,2 km/h (1 Bft) SW 0,00 h 14,4 C 15,7 C 6,0 km/h (2 Bft)
01.08.2023 06:00 16,3 C 18,6 C 15,8 C 16,1 C 15,8 C 0,0 C 87 % 90 % 999,8 hPa 1,4 l/m 2,0 km/h (1 Bft) O-SO 0,00 h 14,2 C 15,8 C 2,5 km/h (1 Bft)
01.08.2023 07:00 16,0 C 18,5 C 16,1 C 16,1 C 16,1 C 0,2 C 88 % 90 % 999,3 hPa 1,4 l/m 1,4 km/h (1 Bft) SO 0,00 h 14,0 C 16,1 C 2,7 km/h (1 Bft)
01.08.2023 08:00 15,9 C 18,6 C 16,5 C 16,7 C 16,7 C 0,8 C 88 % 90 % 998,8 hPa 1,4 l/m 2,9 km/h (1 Bft) S 0,00 h 13,9 C 16,7 C 4,7 km/h (1 Bft)
01.08.2023 09:00 16,1 C 18,8 C 16,8 C 17,0 C 17,0 C 1,0 C 88 % 90 % 998,6 hPa 1,4 l/m 3,7 km/h (1 Bft) SO 0,00 h 14,1 C 17,0 C 5,5 km/h (1 Bft)
01.08.2023 10:00 16,0 C 18,8 C 16,7 C 16,9 C 16,9 C 0,9 C 88 % 90 % 999,1 hPa 1,4 l/m 2,5 km/h (1 Bft) S 0,00 h 14,0 C 16,9 C 5,3 km/h (1 Bft)
01.08.2023 11:00 16,0 C 18,8 C 17,4 C 18,2 C 18,2 C 2,2 C 88 % 90 % 998,5 hPa 0,0 l/m 1,6 km/h (1 Bft) SO 0,08 h 14,1 C 18,2 C 2,7 km/h (1 Bft)
01.08.2023 12:00 16,7 C 18,8 C 18,1 C 21,5 C 21,5 C 4,8 C 88 % 90 % 998,3 hPa 0,0 l/m 2,2 km/h (1 Bft) S-SO 0,92 h 14,7 C 21,5 C 3,8 km/h (1 Bft)
01.08.2023 13:00 16,3 C 18,9 C 16,8 C 17,9 C 17,9 C 1,6 C 88 % 90 % 998,6 hPa 2,1 l/m 0,5 km/h (0 Bft) W 0,00 h 14,3 C 17,9 C 1,8 km/h (1 Bft)
01.08.2023 14:00 15,8 C 18,9 C 17,4 C 20,9 C 20,9 C 5,1 C 88 % 90 % 999,5 hPa 0,0 l/m 0,1 km/h (0 Bft) N 0,92 h 13,8 C 20,9 C 0,4 km/h (0 Bft)
01.08.2023 15:00 16,7 C 18,5 C 19,3 C 25,9 C 25,9 C 9,2 C 88 % 90 % 999,6 hPa 0,0 l/m 0,0 km/h (0 Bft) N 1,00 h 14,7 C 25,9 C 0,0 km/h (0 Bft)
01.08.2023 16:00 18,7 C 18,3 C 18,9 C 23,9 C 23,9 C 5,2 C 84 % 84 % 999,8 hPa 0,0 l/m 0,0 km/h (0 Bft) N 0,78 h 16,0 C 23,9 C 0,0 km/h (0 Bft)
01.08.2023 17:00 19,7 C 18,2 C 18,8 C 21,7 C 21,7 C 2,0 C 77 % 76 % 1000,2 hPa 0,0 l/m 0,0 km/h (0 Bft) N 0,00 h 15,6 C 21,7 C 0,0 km/h (0 Bft)
01.08.2023 18:00 21,1 C 18,1 C 19,4 C 22,5 C 22,5 C 1,5 C 68 % 70 % 1000,6 hPa 0,0 l/m 0,1 km/h (0 Bft) N 0,00 h 14,9 C 22,5 C 0,0 km/h (0 Bft)
01.08.2023 19:00 20,8 C 18,1 C 19,8 C 21,8 C 21,8 C 1,0 C 64 % 62 % 1001,4 hPa 0,0 l/m 0,1 km/h (0 Bft) N 0,00 h 13,8 C 21,8 C 0,5 km/h (0 Bft)
01.08.2023 20:00 18,8 C 18,1 C 17,7 C 18,5 C 17,9 C 0,0 C 69 % 69 % 1001,9 hPa 0,0 l/m 0,0 km/h (0 Bft) N 0,00 h 13,1 C 17,9 C 0,0 km/h (0 Bft)
01.08.2023 21:00 17,3 C 18,2 C 16,2 C 16,8 C 15,8 C 0,0 C 76 % 77 % 1002,7 hPa 0,0 l/m 0,0 km/h (0 Bft) N 0,00 h 13,0 C 15,8 C 0,0 km/h (0 Bft)
01.08.2023 22:00 16,1 C 18,2 C 15,5 C 15,7 C 15,0 C 0,0 C 82 % 82 % 1003,3 hPa 0,0 l/m 0,0 km/h (0 Bft) N 0,00 h 13,0 C 15,0 C 0,0 km/h (0 Bft)
01.08.2023 23:00 15,8 C 18,1 C 15,4 C 15,7 C 15,6 C 0,0 C 83 % 81 % 1003,7 hPa 0,0 l/m 0,0 km/h (0 Bft) N 0,00 h 12,9 C 15,6 C 0,0 km/h (0 Bft)
02.08.2023 00:00 15,9 C 18,0 C 15,6 C 15,9 C 15,8 C 0,0 C 83 % 80 % 1004,0 hPa 0,0 l/m 0,0 km/h (0 Bft) N 0,00 h 13,0 C 15,8 C 0,0 km/h (0 Bft)
02.08.2023 01:00 15,9 C 17,9 C 15,6 C 15,9 C 15,8 C 0,0 C 83 % 79 % 1004,1 hPa 0,0 l/m 0,0 km/h (0 Bft) N 0,00 h 13,0 C 15,8 C 0,0 km/h (0 Bft)
02.08.2023 02:00 15,9 C 17,9 C 15,5 C 15,8 C 15,6 C 0,0 C 83 % 80 % 1004,1 hPa 0,0 l/m 0,0 km/h (0 Bft) N 0,00 h 13,0 C 15,6 C 0,0 km/h (0 Bft)
02.08.2023 03:00 15,9 C 17,9 C 15,6 C 15,8 C 15,8 C 0,0 C 83 % 79 % 1004,1 hPa 0,0 l/m 0,2 km/h (0 Bft) SO 0,00 h 13,0 C 15,8 C 0,8 km/h (0 Bft)
02.08.2023 04:00 15,9 C 17,8 C 15,6 C 15,8 C 15,7 C 0,0 C 82 % 77 % 1004,1 hPa 0,0 l/m 0,4 km/h (0 Bft) N 0,00 h 12,8 C 15,7 C 0,7 km/h (0 Bft)
02.08.2023 05:00 15,5 C 17,7 C 15,1 C 15,4 C 15,1 C 0,0 C 82 % 78 % 1003,9 hPa 0,0 l/m 0,0 km/h (0 Bft) N 0,00 h 12,5 C 15,1 C 0,0 km/h (0 Bft)
02.08.2023 06:00 15,6 C 17,7 C 15,3 C 15,5 C 15,4 C 0,0 C 83 % 79 % 1003,9 hPa 0,0 l/m 0,1 km/h (0 Bft) N 0,00 h 12,6 C 15,4 C 0,5 km/h (0 Bft)
02.08.2023 07:00 15,6 C 17,7 C 15,4 C 15,9 C 15,7 C 0,3 C 85 % 84 % 1003,5 hPa 0,0 l/m 0,3 km/h (0 Bft) N 0,00 h 13,1 C 15,7 C 1,1 km/h (1 Bft)
02.08.2023 08:00 16,9 C 17,5 C 16,9 C 19,4 C 19,4 C 2,5 C 83 % 78 % 1003,2 hPa 0,0 l/m 0,4 km/h (0 Bft) S-SO 0,40 h 13,9 C 19,4 C 2,5 km/h (1 Bft)
02.08.2023 09:00 18,0 C 17,4 C 17,9 C 20,1 C 20,1 C 2,1 C 78 % 73 % 1002,6 hPa 0,0 l/m 0,5 km/h (0 Bft) N 0,00 h 14,1 C 20,1 C 1,2 km/h (1 Bft)
02.08.2023 10:00 19,5 C 17,4 C 19,3 C 22,7 C 22,7 C 3,2 C 73 % 69 % 1001,9 hPa 0,0 l/m 0,5 km/h (0 Bft) N 0,57 h 14,5 C 22,7 C 3,5 km/h (1 Bft)
02.08.2023 11:00 20,5 C 17,5 C 20,0 C 23,4 C 23,4 C 2,9 C 68 % 64 % 1001,5 hPa 0,0 l/m 1,1 km/h (1 Bft) S-SO 0,17 h 14,3 C 23,4 C 2,2 km/h (1 Bft)
02.08.2023 12:00 20,8 C 17,5 C 20,4 C 23,2 C 23,2 C 2,4 C 64 % 60 % 1000,7 hPa 0,0 l/m 1,6 km/h (1 Bft) O-NO 0,00 h 13,8 C 23,2 C 5,0 km/h (1 Bft)
02.08.2023 13:00 20,6 C 17,6 C 20,1 C 22,3 C 22,3 C 1,7 C 65 % 61 % 1000,2 hPa 0,0 l/m 0,8 km/h (0 Bft) S 0,00 h 13,7 C 22,3 C 1,0 km/h (0 Bft)
02.08.2023 14:00 20,9 C 17,6 C 20,5 C 23,6 C 23,6 C 2,7 C 66 % 62 % 998,9 hPa 0,0 l/m 0,4 km/h (0 Bft) N 0,20 h 14,3 C 23,6 C 0,4 km/h (0 Bft)
02.08.2023 15:00 20,1 C 17,7 C 19,4 C 21,1 C 21,1 C 1,0 C 72 % 72 % 998,7 hPa 0,0 l/m 0,1 km/h (0 Bft) N 0,00 h 14,8 C 21,1 C 0,0 km/h (0 Bft)
02.08.2023 16:00 19,4 C 18,1 C 17,9 C 19,4 C 18,8 C 0,3 C 77 % 83 % 997,8 hPa 2,1 l/m 0,0 km/h (0 Bft) N 0,00 h 15,3 C 18,8 C 0,0 km/h (0 Bft)
02.08.2023 17:00 18,3 C 18,4 C 17,2 C 18,1 C 17,5 C 0,0 C 83 % 90 % 997,1 hPa 0,7 l/m 0,0 km/h (0 Bft) N 0,00 h 15,5 C 17,5 C 0,0 km/h (0 Bft)
02.08.2023 18:00 18,6 C 18,5 C 17,7 C 18,6 C 18,4 C 0,1 C 86 % 90 % 996,2 hPa 0,0 l/m 0,1 km/h (0 Bft) N 0,00 h 16,2 C 18,4 C 0,8 km/h (0 Bft)
02.08.2023 19:00 19,0 C 18,4 C 17,9 C 19,5 C 19,5 C 0,5 C 86 % 90 % 995,6 hPa 0,0 l/m 0,5 km/h (0 Bft) N 0,00 h 16,5 C 19,5 C 0,4 km/h (0 Bft)
02.08.2023 20:00 18,7 C 18,6 C 17,6 C 18,5 C 17,9 C 0,0 C 86 % 90 % 995,9 hPa 2,1 l/m 0,9 km/h (0 Bft) W-NW 0,00 h 16,3 C 17,9 C 1,7 km/h (1 Bft)
02.08.2023 21:00 17,5 C 18,7 C 16,6 C 17,2 C 16,6 C 0,0 C 87 % 90 % 995,3 hPa 2,7 l/m 0,3 km/h (0 Bft) O-NO 0,00 h 15,3 C 16,6 C 0,0 km/h (0 Bft)
02.08.2023 22:00 16,9 C 18,9 C 16,6 C 16,7 C 16,5 C 0,0 C 88 % 90 % 995,0 hPa 0,0 l/m 0,4 km/h (0 Bft) S-SO 0,00 h 14,9 C 16,5 C 0,9 km/h (0 Bft)
02.08.2023 23:00 16,9 C 18,7 C 16,4 C 17,0 C 17,0 C 0,2 C 88 % 90 % 995,8 hPa 0,0 l/m 5,2 km/h (1 Bft) SO 0,00 h 14,9 C 17,0 C 8,8 km/h (2 Bft)
03.08.2023 00:00 17,5 C 18,4 C 16,1 C 17,5 C 17,5 C 0,0 C 86 % 90 % 996,4 hPa 0,0 l/m 4,9 km/h (1 Bft) SO 0,00 h 15,2 C 17,5 C 7,4 km/h (2 Bft)
03.08.2023 01:00 17,4 C 18,3 C 16,1 C 17,4 C 17,4 C 0,0 C 85 % 90 % 996,8 hPa 0,0 l/m 3,2 km/h (1 Bft) S 0,00 h 14,9 C 17,4 C 4,8 km/h (1 Bft)
03.08.2023 02:00 17,3 C 18,1 C 16,2 C 17,6 C 17,6 C 0,3 C 84 % 90 % 997,7 hPa 0,0 l/m 1,8 km/h (1 Bft) S-SO 0,00 h 14,6 C 17,6 C 5,2 km/h (1 Bft)
03.08.2023 03:00 17,4 C 18,1 C 16,4 C 17,9 C 17,9 C 0,4 C 83 % 85 % 997,8 hPa 0,0 l/m 1,1 km/h (1 Bft) S-SO 0,00 h 14,6 C 17,9 C 2,2 km/h (1 Bft)
03.08.2023 04:00 17,9 C 18,0 C 16,7 C 18,3 C 18,3 C 0,4 C 81 % 79 % 997,8 hPa 0,0 l/m 1,2 km/h (1 Bft) SO 0,00 h 14,6 C 18,3 C 7,0 km/h (2 Bft)
03.08.2023 05:00 18,1 C 17,9 C 17,0 C 18,0 C 17,7 C 0,0 C 78 % 77 % 997,6 hPa 0,0 l/m 1,4 km/h (1 Bft) SO 0,00 h 14,2 C 17,7 C 4,2 km/h (1 Bft)
03.08.2023 06:00 18,0 C 17,8 C 17,0 C 17,9 C 17,7 C 0,0 C 76 % 74 % 998,0 hPa 0,0 l/m 2,1 km/h (1 Bft) S 0,00 h 13,7 C 17,7 C 6,7 km/h (2 Bft)
03.08.2023 07:00 18,7 C 17,8 C 18,2 C 21,6 C 21,6 C 2,9 C 74 % 69 % 998,4 hPa 0,0 l/m 2,3 km/h (1 Bft) S-SO 0,58 h 13,9 C 21,6 C 3,5 km/h (1 Bft)
03.08.2023 08:00 19,4 C 17,7 C 18,9 C 21,9 C 21,9 C 2,4 C 69 % 63 % 999,0 hPa 0,0 l/m 3,0 km/h (1 Bft) S-SO 0,25 h 13,5 C 21,9 C 9,7 km/h (2 Bft)
03.08.2023 09:00 20,0 C 17,7 C 19,0 C 23,6 C 23,6 C 3,6 C 66 % 61 % 999,8 hPa 0,0 l/m 3,0 km/h (1 Bft) S 0,42 h 13,3 C 23,6 C 7,5 km/h (2 Bft)
03.08.2023 10:00 20,0 C 17,6 C 19,7 C 21,8 C 21,8 C 1,8 C 65 % 58 % 1000,1 hPa 0,0 l/m 2,5 km/h (1 Bft) S-SO 0,00 h 13,2 C 21,8 C 5,0 km/h (1 Bft)
03.08.2023 11:00 20,0 C 17,6 C 19,8 C 21,5 C 21,5 C 1,5 C 64 % 57 % 1000,7 hPa 0,0 l/m 2,2 km/h (1 Bft) S 0,00 h 13,1 C 21,5 C 3,4 km/h (1 Bft)
03.08.2023 12:00 20,9 C 17,6 C 20,8 C 24,2 C 24,2 C 3,2 C 63 % 57 % 1001,1 hPa 0,0 l/m 1,6 km/h (1 Bft) S-SO 0,50 h 13,7 C 24,2 C 2,8 km/h (1 Bft)
03.08.2023 13:00 20,8 C 17,6 C 20,4 C 22,7 C 22,7 C 1,9 C 62 % 56 % 1001,7 hPa 0,0 l/m 2,8 km/h (1 Bft) SO 0,08 h 13,2 C 22,7 C 6,5 km/h (2 Bft)
03.08.2023 14:00 21,2 C 17,6 C 21,4 C 23,9 C 23,9 C 2,7 C 62 % 56 % 1002,2 hPa 0,0 l/m 2,3 km/h (1 Bft) S-SO 0,08 h 13,7 C 23,9 C 7,1 km/h (2 Bft)
03.08.2023 15:00 21,7 C 17,7 C 22,1 C 25,5 C 25,5 C 3,8 C 61 % 55 % 1003,1 hPa 0,0 l/m 2,8 km/h (1 Bft) S-SW 0,75 h 13,9 C 25,5 C 6,3 km/h (2 Bft)
03.08.2023 16:00 22,5 C 17,8 C 22,7 C 25,9 C 25,9 C 3,4 C 58 % 51 % 1003,3 hPa 0,0 l/m 3,8 km/h (1 Bft) S-SO 0,58 h 13,7 C 25,9 C 7,0 km/h (2 Bft)
03.08.2023 17:00 22,3 C 18,0 C 22,1 C 23,3 C 23,3 C 1,0 C 57 % 51 % 1003,8 hPa 0,0 l/m 2,7 km/h (1 Bft) SW 0,00 h 13,4 C 23,3 C 6,7 km/h (2 Bft)
03.08.2023 18:00 21,9 C 18,0 C 21,4 C 22,5 C 22,5 C 0,6 C 59 % 53 % 1004,1 hPa 0,0 l/m 1,7 km/h (1 Bft) S-SO 0,00 h 13,5 C 22,5 C 2,7 km/h (1 Bft)
03.08.2023 19:00 21,5 C 18,1 C 21,0 C 21,8 C 21,8 C 0,3 C 60 % 54 % 1004,5 hPa 0,0 l/m 1,7 km/h (1 Bft) S 0,00 h 13,4 C 21,8 C 3,1 km/h (1 Bft)
03.08.2023 20:00 20,6 C 18,1 C 19,8 C 20,4 C 20,0 C 0,0 C 63 % 57 % 1004,7 hPa 0,0 l/m 0,4 km/h (0 Bft) N 0,00 h 13,2 C 20,0 C 2,0 km/h (1 Bft)
03.08.2023 21:00 19,4 C 18,2 C 18,6 C 19,1 C 18,4 C 0,0 C 67 % 62 % 1005,3 hPa 0,0 l/m 0,2 km/h (0 Bft) N 0,00 h 13,0 C 18,4 C 0,4 km/h (0 Bft)
03.08.2023 22:00 18,4 C 18,3 C 17,7 C 18,1 C 17,4 C 0,0 C 70 % 65 % 1006,1 hPa 0,0 l/m 0,1 km/h (0 Bft) N 0,00 h 12,9 C 17,4 C 0,3 km/h (0 Bft)
03.08.2023 23:00 17,8 C 18,3 C 17,2 C 17,6 C 17,0 C 0,0 C 73 % 68 % 1006,4 hPa 0,0 l/m 0,2 km/h (0 Bft) N 0,00 h 12,9 C 17,0 C 0,5 km/h (0 Bft)
04.08.2023 00:00 17,3 C 18,2 C 16,9 C 17,2 C 16,8 C 0,0 C 75 % 69 % 1006,7 hPa 0,0 l/m 0,3 km/h (0 Bft) N 0,00 h 12,9 C 16,8 C 0,4 km/h (0 Bft)
04.08.2023 01:00 17,5 C 18,2 C 17,1 C 17,4 C 17,3 C 0,0 C 76 % 70 % 1007,1 hPa 0,0 l/m 0,5 km/h (0 Bft) S 0,00 h 13,2 C 17,3 C 2,1 km/h (1 Bft)
04.08.2023 02:00 17,6 C 18,1 C 17,3 C 17,6 C 17,5 C 0,0 C 76 % 69 % 1008,1 hPa 0,0 l/m 1,9 km/h (1 Bft) S 0,00 h 13,3 C 17,5 C 4,5 km/h (1 Bft)
04.08.2023 03:00 17,2 C 18,1 C 16,9 C 17,1 C 16,9 C 0,0 C 77 % 72 % 1008,2 hPa 0,0 l/m 1,0 km/h (0 Bft) S 0,00 h 13,2 C 16,9 C 0,9 km/h (0 Bft)
04.08.2023 04:00 17,1 C 18,1 C 16,9 C 17,0 C 17,0 C 0,0 C 78 % 72 % 1008,5 hPa 0,0 l/m 0,2 km/h (0 Bft) N 0,00 h 13,2 C 17,0 C 0,1 km/h (0 Bft)
04.08.2023 05:00 16,7 C 18,1 C 16,2 C 16,5 C 16,1 C 0,0 C 79 % 73 % 1008,6 hPa 0,0 l/m 0,0 km/h (0 Bft) N 0,00 h 12,9 C 16,1 C 0,1 km/h (0 Bft)
04.08.2023 06:00 16,2 C 18,1 C 15,9 C 16,1 C 15,9 C 0,0 C 81 % 76 % 1009,1 hPa 0,0 l/m 0,0 km/h (0 Bft) N 0,00 h 12,8 C 15,9 C 0,0 km/h (0 Bft)
04.08.2023 07:00 16,4 C 18,1 C 16,4 C 16,6 C 16,6 C 0,3 C 82 % 77 % 1009,9 hPa 0,0 l/m 0,0 km/h (0 Bft) N 0,00 h 13,2 C 16,6 C 0,0 km/h (0 Bft)
04.08.2023 08:00 16,8 C 18,2 C 16,8 C 17,7 C 17,7 C 0,9 C 84 % 79 % 1010,7 hPa 0,0 l/m 0,0 km/h (0 Bft) N 0,00 h 14,0 C 17,7 C 0,0 km/h (0 Bft)
04.08.2023 09:00 16,7 C 18,4 C 16,5 C 17,0 C 17,0 C 0,3 C 84 % 82 % 1011,1 hPa 0,0 l/m 0,0 km/h (0 Bft) N 0,00 h 14,1 C 17,0 C 0,0 km/h (0 Bft)
04.08.2023 10:00 17,0 C 18,4 C 16,7 C 17,9 C 17,9 C 0,9 C 86 % 85 % 1011,5 hPa 0,0 l/m 0,0 km/h (0 Bft) N 0,00 h 14,6 C 17,9 C 0,0 km/h (0 Bft)
04.08.2023 11:00 17,9 C 18,3 C 17,6 C 22,3 C 22,3 C 4,4 C 84 % 85 % 1011,7 hPa 0,0 l/m 0,1 km/h (0 Bft) N 0,75 h 15,2 C 22,3 C 0,2 km/h (0 Bft)
04.08.2023 12:00 17,9 C 18,4 C 17,1 C 19,1 C 19,0 C 1,2 C 84 % 87 % 1011,9 hPa 2,7 l/m 0,1 km/h (0 Bft) N 0,08 h 15,1 C 19,0 C 0,0 km/h (0 Bft)
04.08.2023 13:00 18,5 C 18,4 C 17,3 C 22,0 C 22,0 C 3,5 C 85 % 90 % 1012,1 hPa 0,0 l/m 0,0 km/h (0 Bft) N 0,58 h 15,9 C 22,0 C 0,2 km/h (0 Bft)
04.08.2023 14:00 20,1 C 18,3 C 18,8 C 25,8 C 25,8 C 5,7 C 78 % 90 % 1011,9 hPa 0,0 l/m 0,0 km/h (0 Bft) N 1,00 h 16,1 C 25,8 C 0,3 km/h (0 Bft)
04.08.2023 15:00 20,3 C 18,3 C 18,8 C 23,4 C 23,4 C 3,0 C 74 % 83 % 1012,2 hPa 0,0 l/m 0,3 km/h (0 Bft) O-NO 0,42 h 15,5 C 23,4 C 0,3 km/h (0 Bft)
04.08.2023 16:00 20,9 C 18,3 C 19,0 C 23,0 C 23,0 C 2,2 C 72 % 83 % 1012,3 hPa 0,0 l/m 0,0 km/h (0 Bft) N 0,00 h 15,5 C 23,0 C 0,0 km/h (0 Bft)
04.08.2023 17:00 21,1 C 18,3 C 19,7 C 23,0 C 23,0 C 2,0 C 71 % 81 % 1012,4 hPa 0,0 l/m 0,0 km/h (0 Bft) N 0,00 h 15,6 C 23,0 C 0,0 km/h (0 Bft)
04.08.2023 18:00 20,8 C 18,3 C 19,6 C 22,2 C 22,2 C 1,3 C 72 % 78 % 1012,3 hPa 0,0 l/m 0,1 km/h (0 Bft) N 0,00 h 15,6 C 22,2 C 0,2 km/h (0 Bft)
04.08.2023 19:00 20,2 C 18,4 C 18,9 C 20,4 C 20,3 C 0,2 C 73 % 78 % 1012,4 hPa 0,0 l/m 0,0 km/h (0 Bft) N 0,00 h 15,1 C 20,3 C 0,0 km/h (0 Bft)
04.08.2023 20:00 19,2 C 18,4 C 18,1 C 19,0 C 18,6 C 0,0 C 75 % 79 % 1013,0 hPa 0,0 l/m 0,0 km/h (0 Bft) N 0,00 h 14,6 C 18,6 C 0,0 km/h (0 Bft)
04.08.2023 21:00 18,1 C 18,6 C 17,2 C 17,8 C 17,2 C 0,0 C 78 % 81 % 1013,4 hPa 0,0 l/m 0,0 km/h (0 Bft) N 0,00 h 14,1 C 17,2 C 0,0 km/h (0 Bft)
04.08.2023 22:00 17,3 C 18,8 C 16,7 C 17,1 C 16,6 C 0,0 C 82 % 84 % 1013,6 hPa 0,0 l/m 0,0 km/h (0 Bft) N 0,00 h 14,1 C 16,6 C 0,0 km/h (0 Bft)
04.08.2023 23:00 16,9 C 18,8 C 16,4 C 16,7 C 16,2 C 0,0 C 84 % 86 % 1013,5 hPa 0,0 l/m 0,0 km/h (0 Bft) N 0,00 h 14,1 C 16,2 C 0,0 km/h (0 Bft)
05.08.2023 00:00 16,5 C 18,7 C 16,0 C 16,3 C 15,7 C 0,0 C 85 % 90 % 1013,4 hPa 0,0 l/m 0,0 km/h (0 Bft) N 0,00 h 14,0 C 15,7 C 0,0 km/h (0 Bft)
05.08.2023 01:00 16,2 C 18,7 C 16,0 C 16,0 C 15,8 C 0,0 C 87 % 90 % 1013,6 hPa 0,0 l/m 0,0 km/h (0 Bft) N 0,00 h 14,0 C 15,8 C 0,0 km/h (0 Bft)
05.08.2023 02:00 15,9 C 18,6 C 15,8 C 15,8 C 15,5 C 0,0 C 88 % 90 % 1013,2 hPa 0,0 l/m 0,0 km/h (0 Bft) N 0,00 h 13,9 C 15,5 C 0,0 km/h (0 Bft)
05.08.2023 03:00 15,8 C 18,6 C 15,7 C 15,7 C 15,4 C 0,0 C 88 % 90 % 1012,9 hPa 0,0 l/m 0,0 km/h (0 Bft) N 0,00 h 13,8 C 15,4 C 0,0 km/h (0 Bft)
05.08.2023 04:00 15,6 C 18,5 C 15,6 C 15,5 C 15,3 C 0,0 C 88 % 90 % 1012,9 hPa 0,0 l/m 0,0 km/h (0 Bft) N 0,00 h 13,6 C 15,3 C 0,0 km/h (0 Bft)
05.08.2023 05:00 15,4 C 18,5 C 15,6 C 15,5 C 15,5 C 0,2 C 88 % 89 % 1012,7 hPa 0,0 l/m 0,2 km/h (0 Bft) N 0,08 h 13,4 C 15,5 C 0,7 km/h (0 Bft)
05.08.2023 06:00 15,4 C 18,3 C 15,6 C 15,6 C 15,6 C 0,3 C 87 % 82 % 1013,3 hPa 0,0 l/m 0,2 km/h (0 Bft) N 0,08 h 13,2 C 15,6 C 1,2 km/h (1 Bft)
05.08.2023 07:00 15,6 C 18,2 C 15,8 C 16,3 C 16,3 C 0,7 C 87 % 82 % 1013,3 hPa 0,0 l/m 0,1 km/h (0 Bft) N 0,00 h 13,5 C 16,3 C 0,5 km/h (0 Bft)
05.08.2023 08:00 16,1 C 18,1 C 16,1 C 17,3 C 17,3 C 1,1 C 85 % 78 % 1013,3 hPa 0,0 l/m 0,2 km/h (0 Bft) N 0,00 h 13,6 C 17,3 C 0,7 km/h (0 Bft)
05.08.2023 09:00 16,7 C 18,0 C 16,6 C 18,2 C 18,2 C 1,5 C 84 % 78 % 1013,2 hPa 0,0 l/m 0,2 km/h (0 Bft) N 0,00 h 13,9 C 18,2 C 0,5 km/h (0 Bft)
05.08.2023 10:00 17,5 C 17,9 C 17,3 C 19,6 C 19,6 C 2,1 C 82 % 76 % 1013,5 hPa 0,0 l/m 0,1 km/h (0 Bft) N 0,00 h 14,3 C 19,6 C 0,2 km/h (0 Bft)
05.08.2023 11:00 18,1 C 17,9 C 18,0 C 20,9 C 20,9 C 2,7 C 79 % 73 % 1013,4 hPa 0,0 l/m 0,1 km/h (0 Bft) N 0,08 h 14,4 C 20,9 C 0,3 km/h (0 Bft)
05.08.2023 12:00 19,3 C 17,9 C 19,1 C 22,8 C 22,8 C 3,5 C 76 % 71 % 1012,8 hPa 0,0 l/m 0,3 km/h (0 Bft) N 1,00 h 15,0 C 22,8 C 1,2 km/h (1 Bft)
05.08.2023 13:00 20,2 C 17,9 C 19,7 C 24,0 C 24,0 C 3,8 C 73 % 68 % 1012,4 hPa 0,0 l/m 0,1 km/h (0 Bft) N 0,92 h 15,1 C 24,0 C 0,5 km/h (0 Bft)
05.08.2023 14:00 20,9 C 17,9 C 20,4 C 24,7 C 24,7 C 3,8 C 69 % 67 % 1012,0 hPa 0,0 l/m 0,2 km/h (0 Bft) N 0,73 h 15,1 C 24,7 C 0,0 km/h (0 Bft)
05.08.2023 15:00 21,4 C 17,9 C 20,8 C 25,6 C 25,6 C 4,2 C 67 % 64 % 1011,5 hPa 0,0 l/m 0,1 km/h (0 Bft) N 1,00 h 15,0 C 25,6 C 0,2 km/h (0 Bft)
05.08.2023 16:00 21,2 C 17,9 C 20,4 C 23,6 C 23,6 C 2,4 C 66 % 62 % 1011,0 hPa 0,0 l/m 0,1 km/h (0 Bft) N 0,00 h 14,6 C 23,6 C 0,0 km/h (0 Bft)
05.08.2023 17:00 20,7 C 18,0 C 19,8 C 21,7 C 21,7 C 1,1 C 69 % 65 % 1010,8 hPa 0,0 l/m 0,1 km/h (0 Bft) N 0,00 h 14,7 C 21,7 C 0,2 km/h (0 Bft)
05.08.2023 18:00 20,1 C 18,2 C 19,3 C 20,8 C 20,8 C 0,7 C 72 % 69 % 1010,2 hPa 0,0 l/m 0,0 km/h (0 Bft) N 0,00 h 15,0 C 20,8 C 0,0 km/h (0 Bft)
05.08.2023 19:00 19,5 C 18,3 C 18,7 C 19,5 C 19,4 C 0,0 C 75 % 73 % 1009,8 hPa 0,0 l/m 0,0 km/h (0 Bft) N 0,00 h 15,0 C 19,4 C 0,0 km/h (0 Bft)
05.08.2023 20:00 18,6 C 18,4 C 17,6 C 18,3 C 17,7 C 0,0 C 77 % 78 % 1009,6 hPa 0,0 l/m 0,0 km/h (0 Bft) N 0,00 h 14,5 C 17,7 C 0,0 km/h (0 Bft)
05.08.2023 21:00 17,4 C 18,6 C 16,6 C 17,0 C 16,3 C 0,0 C 81 % 81 % 1009,6 hPa 0,0 l/m 0,0 km/h (0 Bft) N 0,00 h 14,1 C 16,3 C 0,0 km/h (0 Bft)
05.08.2023 22:00 16,5 C 18,7 C 15,9 C 16,2 C 15,5 C 0,0 C 83 % 84 % 1009,3 hPa 0,0 l/m 0,0 km/h (0 Bft) N 0,00 h 13,6 C 15,5 C 0,0 km/h (0 Bft)
05.08.2023 23:00 16,0 C 18,6 C 15,7 C 15,8 C 15,4 C 0,0 C 85 % 84 % 1008,6 hPa 0,0 l/m 0,0 km/h (0 Bft) N 0,00 h 13,5 C 15,4 C 0,0 km/h (0 Bft)
06.08.2023 00:00 15,7 C 18,5 C 15,3 C 15,5 C 15,0 C 0,0 C 86 % 87 % 1007,6 hPa 0,0 l/m 0,0 km/h (0 Bft) N 0,00 h 13,3 C 15,0 C 0,0 km/h (0 Bft)
06.08.2023 01:00 15,3 C 18,5 C 15,0 C 15,1 C 14,6 C 0,0 C 87 % 90 % 1007,1 hPa 0,0 l/m 0,0 km/h (0 Bft) N 0,00 h 13,2 C 14,6 C 0,0 km/h (0 Bft)
06.08.2023 02:00 15,2 C 18,4 C 15,0 C 15,0 C 14,6 C 0,0 C 87 % 90 % 1006,4 hPa 0,0 l/m 0,0 km/h (0 Bft) N 0,00 h 13,0 C 14,6 C 0,0 km/h (0 Bft)
06.08.2023 03:00 15,0 C 18,4 C 14,9 C 14,8 C 14,5 C 0,0 C 87 % 90 % 1006,3 hPa 0,0 l/m 0,0 km/h (0 Bft) N 0,00 h 12,9 C 14,5 C 0,0 km/h (0 Bft)
06.08.2023 04:00 14,8 C 18,4 C 14,8 C 14,7 C 14,4 C 0,0 C 88 % 90 % 1005,6 hPa 0,0 l/m 0,0 km/h (0 Bft) N 0,00 h 12,8 C 14,4 C 0,0 km/h (0 Bft)
06.08.2023 05:00 14,6 C 18,3 C 14,6 C 14,4 C 14,2 C 0,0 C 88 % 90 % 1005,1 hPa 0,0 l/m 0,0 km/h (0 Bft) N 0,00 h 12,6 C 14,2 C 0,0 km/h (0 Bft)
06.08.2023 06:00 14,4 C 18,3 C 14,6 C 14,4 C 14,3 C 0,0 C 88 % 90 % 1004,7 hPa 0,0 l/m 0,1 km/h (0 Bft) N 0,00 h 12,5 C 14,3 C 1,0 km/h (0 Bft)
06.08.2023 07:00 14,3 C 18,1 C 14,3 C 14,3 C 14,2 C 0,0 C 88 % 90 % 1004,6 hPa 2,1 l/m 0,1 km/h (0 Bft) N 0,00 h 12,3 C 14,2 C 0,0 km/h (0 Bft)
06.08.2023 08:00 14,3 C 18,0 C 14,4 C 14,6 C 14,6 C 0,3 C 88 % 90 % 1004,3 hPa 0,0 l/m 0,0 km/h (0 Bft) N 0,00 h 12,3 C 14,6 C 0,0 km/h (0 Bft)
06.08.2023 09:00 14,5 C 18,0 C 14,9 C 15,3 C 15,3 C 0,8 C 88 % 90 % 1004,2 hPa 0,0 l/m 0,0 km/h (0 Bft) N 0,00 h 12,6 C 15,3 C 0,0 km/h (0 Bft)
06.08.2023 10:00 15,3 C 18,0 C 15,8 C 16,6 C 16,6 C 1,3 C 88 % 90 % 1004,1 hPa 0,0 l/m 0,0 km/h (0 Bft) N 0,00 h 13,4 C 16,6 C 0,0 km/h (0 Bft)
06.08.2023 11:00 16,9 C 17,9 C 16,7 C 20,8 C 20,8 C 3,9 C 88 % 90 % 1003,6 hPa 0,0 l/m 0,0 km/h (0 Bft) N 0,83 h 14,9 C 20,8 C 0,0 km/h (0 Bft)
06.08.2023 12:00 18,6 C 17,7 C 17,5 C 23,0 C 23,0 C 4,4 C 82 % 90 % 1003,0 hPa 0,0 l/m 0,0 km/h (0 Bft) N 1,00 h 15,4 C 23,0 C 0,0 km/h (0 Bft)
06.08.2023 13:00 19,5 C 17,6 C 17,6 C 23,5 C 23,5 C 4,0 C 74 % 84 % 1002,3 hPa 0,0 l/m 0,0 km/h (0 Bft) N 0,67 h 14,8 C 23,5 C 0,0 km/h (0 Bft)
06.08.2023 14:00 19,9 C 17,6 C 18,6 C 23,9 C 23,9 C 3,9 C 74 % 83 % 1002,0 hPa 0,0 l/m 0,0 km/h (0 Bft) N 0,73 h 15,1 C 23,9 C 0,0 km/h (0 Bft)
06.08.2023 15:00 20,8 C 17,6 C 19,1 C 27,2 C 27,2 C 6,4 C 69 % 78 % 1001,7 hPa 0,0 l/m 0,0 km/h (0 Bft) N 1,00 h 14,8 C 27,2 C 0,0 km/h (0 Bft)
06.08.2023 16:00 21,5 C 17,6 C 20,4 C 27,2 C 27,2 C 5,7 C 65 % 74 % 1001,4 hPa 0,0 l/m 0,0 km/h (0 Bft) N 1,00 h 14,6 C 27,2 C 0,0 km/h (0 Bft)
06.08.2023 17:00 21,3 C 17,7 C 20,1 C 25,1 C 25,1 C 3,8 C 67 % 71 % 1001,4 hPa 0,0 l/m 0,0 km/h (0 Bft) N 0,58 h 15,0 C 25,1 C 0,0 km/h (0 Bft)
06.08.2023 18:00 18,4 C 18,1 C 16,5 C 17,8 C 16,6 C 0,0 C 74 % 81 % 1001,9 hPa 1,4 l/m 0,0 km/h (0 Bft) N 0,00 h 13,7 C 16,6 C 0,0 km/h (0 Bft)
06.08.2023 19:00 16,8 C 18,2 C 15,5 C 16,4 C 15,6 C 0,0 C 82 % 90 % 1001,4 hPa 0,7 l/m 0,0 km/h (0 Bft) N 0,00 h 13,7 C 15,6 C 0,0 km/h (0 Bft)
06.08.2023 20:00 15,5 C 18,2 C 14,7 C 15,2 C 14,6 C 0,0 C 85 % 90 % 1002,2 hPa 0,7 l/m 0,1 km/h (0 Bft) N 0,00 h 12,9 C 14,6 C 0,7 km/h (0 Bft)
06.08.2023 21:00 14,7 C 18,2 C 14,4 C 14,5 C 14,0 C 0,0 C 87 % 90 % 1002,7 hPa 0,7 l/m 0,0 km/h (0 Bft) N 0,00 h 12,6 C 14,0 C 0,0 km/h (0 Bft)
06.08.2023 22:00 14,5 C 18,1 C 14,5 C 14,4 C 14,2 C 0,0 C 88 % 90 % 1002,9 hPa 0,0 l/m 0,1 km/h (0 Bft) N 0,00 h 12,5 C 14,2 C 0,5 km/h (0 Bft)
06.08.2023 23:00 14,3 C 18,1 C 14,4 C 14,3 C 14,2 C 0,0 C 88 % 90 % 1002,7 hPa 0,7 l/m 0,0 km/h (0 Bft) N 0,00 h 12,3 C 14,2 C 0,0 km/h (0 Bft)
Min-Datum _ 31.07.23 02.08.23 31.07.23 31.07.23 31.07.23 31.07.23 03.08.23 03.08.23 02.08.23 - 31.07.23 - - 31.07.23 31.07.23 31.07.23
_ Min-Zeit 00:00 08:50 00:00 00:00 00:00 00:00 16:55 16:30 22:00 - 00:00 - - 02:11 00:00 00:00
Minimum _ 13,7 C 17,4 C 12,9 C 13,5 C 13,1 C 0,0 C 56 % 49 % 994,8 hPa - 0,0 km/h (0 Bft) - - 11,0 C 13,1 C 0,0 km/h (0 Bft)
Max-Datum _ 03.08.23 01.08.23 03.08.23 01.08.23 01.08.23 01.08.23 01.08.23 31.07.23 04.08.23 02.08.23 02.08.23 - 04.08.23 01.08.23 01.08.23 03.08.23
_ Max-Zeit 16:50 14:21 16:45 16:05 16:05 15:35 06:41 00:00 22:26 21:30 23:25 - 14:32 16:11 16:05 06:55
Maximum _ 22,9 C 19,0 C 23,2 C 27,5 C 27,5 C 10,1 C 88 % 90 % 1013,9 hPa 2,7 l/m 6,9 km/h
SO (2 Bft)
- 0,35 h 16,7 C 27,5 C 27,8 km/h
S (4 Bft)
Durchschnitt _ 17,9 C 18,1 C 17,4 C 19,0 C 18,8 C 1,2 C 78 % 78 % 1005,6 hPa #28,8 l/m 0,7 km/h (0 Bft) S #22:41 h 13,9 C 18,8 C 1,6 km/h (1 Bft)
2023 www.wetterstation-wechselburg.de